Terminal Aerodrome Forecast
Issued by NWS

Home | Current Version | Previous Version | Graphics & Text | Print | Product List | Glossary On
Versions: 1 2 3 4 5 6 7 8 9 10 11 12 13 14
525
FTUS43 KGRB 281138
TAFMTW
TAF
KMTW 281138Z 2812/2912 25004KT P6SM -SHRA BKN035 OVC070
      TEMPO 2812/2816 -TSRA BKN040CB
     FM281600 21008KT P6SM VCSH BKN040 BKN100
     FM290200 24007KT P6SM SCT040=

USA.gov is the U.S. government's official web portal to all federal, state and local government web resources and services.